createdAt,value
2018-11-10T00:00:46.957Z,24.80
2018-11-10T00:01:52.492Z,25.70
2018-11-10T00:02:58.034Z,27.00
2018-11-10T00:04:03.580Z,25.60
2018-11-10T00:05:09.103Z,25.90
2018-11-10T00:06:14.638Z,23.50
2018-11-10T00:07:20.172Z,26.10
2018-11-10T00:08:25.823Z,26.40
2018-11-10T00:09:31.249Z,25.40
2018-11-10T00:10:36.781Z,25.30
2018-11-10T00:11:42.326Z,26.60
2018-11-10T00:12:47.864Z,25.70
2018-11-10T00:13:53.398Z,25.50
2018-11-10T00:14:58.934Z,27.90
2018-11-10T00:16:04.465Z,25.00
2018-11-10T00:17:10.002Z,24.90
2018-11-10T00:18:15.536Z,26.80
2018-11-10T00:19:21.075Z,26.20
2018-11-10T00:20:26.615Z,25.20
2018-11-10T00:21:32.228Z,26.60
2018-11-10T00:22:37.773Z,25.50
2018-11-10T00:23:43.260Z,26.00
2018-11-10T00:24:48.782Z,25.10
2018-11-10T00:25:54.293Z,22.60
2018-11-10T00:26:59.838Z,25.30
2018-11-10T00:28:05.369Z,25.90
2018-11-10T00:29:10.905Z,24.40
2018-11-10T00:30:16.439Z,25.00
2018-11-10T00:31:21.973Z,27.30
2018-11-10T00:32:27.517Z,24.40
2018-11-10T00:33:33.054Z,24.70
2018-11-10T00:34:38.642Z,24.10
2018-11-10T00:35:44.123Z,23.60
2018-11-10T00:36:49.661Z,24.30
2018-11-10T00:37:55.200Z,25.50
2018-11-10T00:39:00.729Z,24.70
2018-11-10T00:40:06.268Z,24.40
2018-11-10T00:41:11.804Z,24.90
2018-11-10T00:42:17.343Z,25.10
2018-11-10T00:43:22.874Z,25.30
2018-11-10T00:44:28.415Z,23.90
2018-11-10T00:45:33.950Z,24.20
2018-11-10T00:46:39.489Z,24.00
2018-11-10T00:47:45.021Z,25.10
2018-11-10T00:48:50.557Z,24.30
2018-11-10T00:49:56.095Z,24.20
2018-11-10T00:51:01.636Z,24.50
2018-11-10T00:52:07.167Z,23.00
2018-11-10T00:53:12.709Z,24.90
2018-11-10T00:54:18.244Z,23.90
2018-11-10T00:55:23.786Z,23.20
2018-11-10T00:56:29.314Z,26.60
2018-11-10T00:57:34.856Z,24.90
2018-11-10T00:58:40.385Z,25.00
2018-11-10T00:59:45.930Z,23.30
2018-11-10T01:00:51.463Z,26.30
2018-11-10T01:01:56.997Z,24.00
2018-11-10T01:03:02.542Z,25.80
2018-11-10T01:04:08.067Z,24.50
2018-11-10T01:05:13.608Z,27.30
2018-11-10T01:06:19.141Z,23.70
2018-11-10T01:07:24.678Z,25.00
2018-11-10T01:08:30.247Z,24.00
2018-11-10T01:09:35.749Z,24.40
2018-11-10T01:10:41.289Z,24.50
2018-11-10T01:11:46.833Z,25.10
2018-11-10T01:12:52.363Z,23.80
2018-11-10T01:13:57.899Z,24.70
2018-11-10T01:15:03.435Z,25.30
2018-11-10T01:16:08.977Z,23.10
2018-11-10T01:17:14.518Z,24.50
2018-11-10T01:18:20.041Z,23.50
2018-11-10T01:19:25.584Z,23.70
2018-11-10T01:20:31.119Z,24.30
2018-11-10T01:21:36.650Z,25.50
2018-11-10T01:22:42.187Z,24.20
2018-11-10T01:23:47.722Z,23.50
2018-11-10T01:24:53.261Z,23.70
2018-11-10T01:25:58.796Z,23.60
2018-11-10T01:27:04.337Z,24.80
2018-11-10T01:28:09.872Z,24.00
2018-11-10T01:29:15.406Z,24.80
2018-11-10T01:30:20.943Z,23.80
2018-11-10T01:31:26.479Z,24.80
2018-11-10T01:32:32.012Z,25.50
2018-11-10T01:33:37.554Z,23.90
2018-11-10T01:34:43.084Z,21.70
2018-11-10T01:35:48.621Z,24.40
2018-11-10T01:36:54.161Z,23.70
2018-11-10T01:37:59.700Z,22.50
2018-11-10T01:39:05.234Z,24.20
2018-11-10T01:40:10.769Z,24.60
2018-11-10T01:41:16.302Z,23.30
2018-11-10T01:42:21.840Z,24.80
2018-11-10T01:43:27.377Z,24.00
2018-11-10T01:44:32.911Z,24.30
2018-11-10T01:45:38.448Z,24.50
2018-11-10T01:46:43.989Z,24.00
2018-11-10T01:47:49.519Z,26.70
2018-11-10T01:48:55.064Z,22.60
2018-11-10T01:50:00.594Z,24.80
2018-11-10T01:51:06.131Z,24.40
2018-11-10T01:52:11.665Z,24.10
2018-11-10T01:53:17.202Z,22.70
2018-11-10T01:54:22.739Z,24.60
2018-11-10T01:55:28.273Z,23.70
2018-11-10T01:56:33.811Z,25.00
2018-11-10T01:57:39.348Z,24.20
2018-11-10T01:58:44.883Z,24.30
2018-11-10T01:59:50.420Z,21.70
2018-11-10T02:00:55.955Z,23.80
2018-11-10T02:02:01.497Z,25.20
2018-11-10T02:03:07.027Z,24.10
2018-11-10T02:04:12.567Z,24.70
2018-11-10T02:05:18.100Z,24.70
2018-11-10T02:06:23.634Z,23.00
2018-11-10T02:07:29.171Z,22.90
2018-11-10T02:08:34.709Z,22.90
2018-11-10T02:09:40.245Z,22.60
2018-11-10T02:10:45.783Z,24.40
2018-11-10T02:11:51.318Z,23.70
2018-11-10T02:12:56.854Z,24.40
2018-11-10T02:14:02.391Z,24.90
2018-11-10T02:15:07.934Z,23.70
2018-11-10T02:16:13.460Z,23.10
2018-11-10T02:17:18.997Z,24.20
2018-11-10T02:18:24.535Z,22.80
2018-11-10T02:19:30.069Z,24.10
2018-11-10T02:20:35.605Z,23.00
2018-11-10T02:21:41.147Z,25.00
2018-11-10T02:22:46.676Z,25.10
2018-11-10T02:23:52.215Z,23.80
2018-11-10T02:24:57.754Z,23.80
2018-11-10T02:26:03.288Z,22.40
2018-11-10T02:27:08.825Z,23.10
2018-11-10T02:28:14.362Z,23.30
2018-11-10T02:29:19.895Z,23.20
2018-11-10T02:30:25.434Z,24.40
2018-11-10T02:31:30.972Z,23.80
2018-11-10T02:32:36.507Z,22.80
2018-11-10T02:33:42.039Z,23.40
2018-11-10T02:34:47.577Z,22.90
2018-11-10T02:35:53.116Z,22.70
2018-11-10T02:36:58.649Z,23.00
2018-11-10T02:38:04.185Z,22.70
2018-11-10T02:39:09.728Z,21.60
2018-11-10T02:40:15.261Z,23.30
2018-11-10T02:41:20.791Z,24.50
2018-11-10T02:42:26.334Z,24.20
2018-11-10T02:43:31.869Z,23.00
2018-11-10T02:44:37.402Z,22.40
2018-11-10T02:45:42.944Z,23.00
2018-11-10T02:46:48.472Z,22.00
2018-11-10T02:47:54.013Z,23.80
2018-11-10T02:48:59.550Z,22.80
2018-11-10T02:50:05.082Z,22.60
2018-11-10T02:51:10.619Z,21.60
2018-11-10T02:52:16.152Z,23.50
2018-11-10T02:53:21.692Z,21.20
2018-11-10T02:54:27.227Z,21.60
2018-11-10T02:55:32.762Z,22.90
2018-11-10T02:56:38.302Z,21.30
2018-11-10T02:57:43.830Z,22.20
2018-11-10T02:58:49.377Z,23.10
2018-11-10T02:59:54.904Z,22.70
2018-11-10T03:01:00.447Z,22.50
2018-11-10T03:02:05.983Z,20.30
2018-11-10T03:03:11.514Z,22.70
2018-11-10T03:04:17.051Z,22.30
2018-11-10T03:05:22.591Z,21.80
2018-11-10T03:06:28.132Z,22.70
2018-11-10T03:07:33.661Z,22.00
2018-11-10T03:08:39.196Z,21.70
2018-11-10T03:09:44.731Z,20.70
2018-11-10T03:10:50.328Z,22.20
2018-11-10T03:11:55.803Z,22.40
2018-11-10T03:13:01.344Z,20.80
2018-11-10T03:14:06.880Z,22.90
2018-11-10T03:15:12.415Z,21.00
2018-11-10T03:16:18.006Z,21.50
2018-11-10T03:17:23.488Z,20.70
2018-11-10T03:18:29.027Z,21.50
2018-11-10T03:19:34.558Z,21.50
2018-11-10T03:20:40.092Z,21.60
2018-11-10T03:21:45.630Z,21.70
2018-11-10T03:22:51.166Z,22.70
2018-11-10T03:23:56.712Z,21.10
2018-11-10T03:25:02.241Z,22.90
2018-11-10T03:26:07.774Z,21.70
2018-11-10T03:27:13.309Z,22.60
2018-11-10T03:28:18.847Z,22.00
2018-11-10T03:29:24.380Z,22.10
2018-11-10T03:30:29.918Z,22.90
2018-11-10T03:31:35.451Z,21.60
2018-11-10T03:32:40.990Z,22.30
2018-11-10T03:33:46.528Z,22.80
2018-11-10T03:34:52.060Z,23.90
2018-11-10T03:35:57.598Z,23.00
2018-11-10T03:37:03.130Z,23.10
2018-11-10T03:38:08.674Z,23.20
2018-11-10T03:39:14.205Z,21.20
2018-11-10T03:40:19.743Z,23.40
2018-11-10T03:41:25.276Z,22.70
2018-11-10T03:42:30.811Z,23.10
2018-11-10T03:43:36.347Z,22.40
2018-11-10T03:44:41.883Z,23.10
2018-11-10T03:45:47.418Z,23.30
2018-11-10T03:46:52.961Z,23.00
2018-11-10T03:47:58.492Z,23.00
2018-11-10T03:49:04.029Z,24.00
2018-11-10T03:50:09.567Z,20.80
2018-11-10T03:51:15.101Z,22.00
2018-11-10T03:52:20.633Z,21.80
2018-11-10T03:53:26.170Z,23.90
2018-11-10T03:54:31.709Z,23.00
2018-11-10T03:55:37.242Z,23.30
2018-11-10T03:56:42.782Z,23.50
2018-11-10T03:57:48.316Z,22.20
2018-11-10T03:58:53.858Z,23.00
2018-11-10T03:59:59.386Z,22.70
2018-11-10T04:01:04.921Z,21.70
2018-11-10T04:02:10.456Z,24.20
2018-11-10T04:03:15.993Z,22.00
2018-11-10T04:04:21.536Z,22.10
2018-11-10T04:05:27.064Z,22.50
2018-11-10T04:06:32.600Z,22.50
2018-11-10T04:07:38.139Z,23.70
2018-11-10T04:08:43.671Z,23.10
2018-11-10T04:09:49.213Z,21.70
2018-11-10T04:10:54.742Z,24.10
2018-11-10T04:12:00.280Z,24.10
2018-11-10T04:13:05.816Z,24.60
2018-11-10T04:14:11.348Z,22.20
2018-11-10T04:15:16.888Z,22.40
2018-11-10T04:16:22.422Z,21.80
2018-11-10T04:17:27.960Z,24.30
2018-11-10T04:18:33.493Z,21.60
2018-11-10T04:19:39.028Z,23.90
2018-11-10T04:20:44.565Z,22.20
2018-11-10T04:21:50.103Z,23.30
2018-11-10T04:22:55.643Z,21.40
2018-11-10T04:24:01.176Z,21.30
2018-11-10T04:25:06.721Z,23.10
2018-11-10T04:26:12.247Z,22.80
2018-11-10T04:27:17.777Z,23.30
2018-11-10T04:28:23.312Z,23.00
2018-11-10T04:29:28.851Z,22.90
2018-11-10T04:30:34.393Z,21.90
2018-11-10T04:31:39.922Z,22.60
2018-11-10T04:32:45.463Z,23.10
2018-11-10T04:33:50.996Z,22.40
2018-11-10T04:34:56.531Z,24.10
2018-11-10T04:36:02.065Z,21.90
2018-11-10T04:37:07.602Z,22.50
2018-11-10T04:38:13.137Z,22.30
2018-11-10T04:39:18.674Z,22.50
2018-11-10T04:40:25.786Z,22.80
2018-11-10T04:41:29.749Z,22.10
2018-11-10T04:42:35.279Z,22.50
2018-11-10T04:43:40.820Z,22.50
2018-11-10T04:44:46.349Z,22.70
2018-11-10T04:45:51.893Z,22.30
2018-11-10T04:46:57.423Z,22.30
2018-11-10T04:48:02.959Z,22.70
2018-11-10T04:49:08.501Z,22.80
2018-11-10T04:50:14.033Z,21.60
2018-11-10T04:51:19.567Z,22.40
2018-11-10T04:52:25.104Z,23.60
2018-11-10T04:53:30.646Z,21.60
2018-11-10T04:54:36.176Z,23.70
2018-11-10T04:55:41.713Z,21.80
2018-11-10T04:56:47.245Z,22.70
2018-11-10T04:57:52.780Z,22.00
2018-11-10T04:58:58.323Z,22.70
2018-11-10T05:00:03.852Z,21.60
2018-11-10T05:01:09.400Z,22.60
2018-11-10T05:02:14.925Z,22.10
2018-11-10T05:03:20.461Z,23.50
2018-11-10T05:04:25.997Z,21.90
2018-11-10T05:05:31.532Z,22.00
2018-11-10T05:06:37.068Z,21.50
2018-11-10T05:07:42.602Z,23.10
2018-11-10T05:08:48.139Z,22.30
2018-11-10T05:09:53.676Z,22.10
2018-11-10T05:10:59.211Z,21.70
2018-11-10T05:12:04.752Z,21.30
2018-11-10T05:13:10.280Z,21.80
2018-11-10T05:14:15.822Z,22.50
2018-11-10T05:15:21.363Z,22.40
2018-11-10T05:16:26.888Z,21.70
2018-11-10T05:17:32.423Z,22.60
2018-11-10T05:18:37.961Z,21.90
2018-11-10T05:19:43.501Z,21.10
2018-11-10T05:20:49.029Z,22.10
2018-11-10T05:21:54.567Z,21.50
2018-11-10T05:23:00.107Z,23.00
2018-11-10T05:24:05.639Z,20.70
2018-11-10T05:25:11.177Z,21.30
2018-11-10T05:26:16.715Z,21.20
2018-11-10T05:27:22.243Z,23.10
2018-11-10T05:28:27.782Z,20.80
2018-11-10T05:29:33.318Z,21.30
2018-11-10T05:30:38.852Z,21.30
2018-11-10T05:31:44.389Z,21.80
2018-11-10T05:32:49.922Z,21.60
2018-11-10T05:33:55.462Z,22.00
2018-11-10T05:35:00.995Z,22.00
2018-11-10T05:36:06.532Z,21.10
2018-11-10T05:37:12.065Z,22.20
2018-11-10T05:38:17.608Z,21.40
2018-11-10T05:39:23.138Z,22.10
2018-11-10T05:40:28.681Z,23.50
2018-11-10T05:41:34.210Z,20.40
2018-11-10T05:42:39.747Z,22.20
2018-11-10T05:43:45.281Z,21.40
2018-11-10T05:44:50.826Z,19.90
2018-11-10T05:45:56.359Z,20.40
2018-11-10T05:47:01.887Z,22.20
2018-11-10T05:48:07.430Z,20.80
2018-11-10T05:49:12.959Z,21.90
2018-11-10T05:50:18.497Z,22.10
2018-11-10T05:51:24.032Z,21.10
2018-11-10T05:52:29.569Z,23.00
2018-11-10T05:53:35.113Z,21.60
2018-11-10T05:54:40.640Z,21.40
2018-11-10T05:55:46.177Z,22.60
2018-11-10T05:56:51.711Z,21.90
2018-11-10T05:57:57.252Z,21.60
2018-11-10T05:59:02.781Z,22.00
2018-11-10T06:00:08.324Z,21.30
2018-11-10T06:01:13.857Z,21.30
2018-11-10T06:02:19.394Z,22.20
2018-11-10T06:03:24.929Z,22.70
2018-11-10T06:04:30.464Z,21.60
2018-11-10T06:05:36.003Z,21.00
2018-11-10T06:06:41.536Z,22.50
2018-11-10T06:07:47.074Z,21.20
2018-11-10T06:08:52.606Z,19.90
2018-11-10T06:09:58.294Z,21.10
2018-11-10T06:11:03.675Z,21.50
2018-11-10T06:12:09.217Z,21.40
2018-11-10T06:13:14.749Z,22.20
2018-11-10T06:14:20.287Z,20.30
2018-11-10T06:15:25.820Z,20.50
2018-11-10T06:16:31.357Z,21.30
2018-11-10T06:17:36.893Z,21.10
2018-11-10T06:18:42.475Z,20.80
2018-11-10T06:19:47.965Z,21.10
2018-11-10T06:20:53.499Z,21.50
2018-11-10T06:21:59.038Z,20.40
2018-11-10T06:23:04.569Z,20.60
2018-11-10T06:24:10.108Z,20.30
2018-11-10T06:25:15.650Z,19.10
2018-11-10T06:26:21.179Z,21.60
2018-11-10T06:27:26.718Z,20.20
2018-11-10T06:28:32.248Z,21.00
2018-11-10T06:29:37.784Z,20.40
2018-11-10T06:30:43.325Z,19.70
2018-11-10T06:31:48.864Z,20.50
2018-11-10T06:32:54.393Z,19.90
2018-11-10T06:33:59.927Z,21.30
2018-11-10T06:35:05.463Z,20.10
2018-11-10T06:36:11.001Z,20.50
2018-11-10T06:37:16.535Z,20.20
2018-11-10T06:38:22.072Z,20.20
2018-11-10T06:39:27.627Z,20.90
2018-11-10T06:40:33.148Z,19.80
2018-11-10T06:41:38.681Z,21.20
2018-11-10T06:42:44.214Z,21.10
2018-11-10T06:43:49.750Z,19.00
2018-11-10T06:44:55.287Z,20.90
2018-11-10T06:46:00.824Z,19.30
2018-11-10T06:47:06.470Z,19.70
2018-11-10T06:48:11.895Z,20.60
2018-11-10T06:49:17.434Z,19.10
2018-11-10T06:50:22.970Z,20.20
2018-11-10T06:51:28.504Z,18.50
2018-11-10T06:52:34.044Z,20.00
2018-11-10T06:53:39.574Z,19.40
2018-11-10T06:54:45.113Z,19.40
2018-11-10T06:55:50.649Z,17.00
2018-11-10T06:56:56.182Z,17.20
2018-11-10T06:58:01.724Z,19.00
2018-11-10T06:59:07.287Z,17.60
2018-11-10T07:00:12.842Z,18.10
2018-11-10T07:01:18.327Z,17.80
2018-11-10T07:02:23.865Z,19.80
2018-11-10T07:05:00.990Z,17.60
2018-11-10T07:06:06.511Z,18.10
2018-11-10T07:08:04.933Z,18.90
2018-11-10T07:09:10.501Z,17.10
2018-11-10T07:11:08.875Z,18.50
2018-11-10T07:12:14.396Z,17.70
2018-11-10T07:14:12.821Z,26.10
2018-11-10T07:15:18.346Z,28.60
2018-11-10T07:17:16.758Z,17.30
2018-11-10T07:18:22.295Z,17.70
2018-11-10T07:20:20.906Z,16.40
2018-11-10T07:21:26.424Z,16.20
2018-11-10T07:23:24.841Z,18.20
2018-11-10T07:24:30.367Z,17.40
2018-11-10T07:26:28.773Z,16.80
2018-11-10T07:27:34.302Z,17.00
2018-11-10T07:29:32.741Z,16.20
2018-11-10T07:30:38.252Z,17.10
2018-11-10T07:32:36.662Z,16.90
2018-11-10T07:33:42.202Z,17.30
2018-11-10T07:35:40.614Z,16.50
2018-11-10T07:36:46.135Z,14.80
2018-11-10T07:38:44.565Z,15.70
2018-11-10T07:39:50.080Z,15.90
2018-11-10T07:41:48.503Z,15.90
2018-11-10T07:42:54.062Z,16.60
2018-11-10T07:43:59.563Z,15.90
2018-11-10T07:45:05.101Z,14.90
2018-11-10T07:46:10.632Z,14.50
2018-11-10T07:47:16.165Z,16.00
2018-11-10T07:48:21.707Z,15.20
2018-11-10T07:49:27.317Z,16.20
2018-11-10T07:50:32.774Z,15.90
2018-11-10T07:51:38.308Z,15.90
2018-11-10T07:52:43.848Z,14.80
2018-11-10T07:53:49.376Z,15.50
2018-11-10T07:54:54.913Z,14.10
2018-11-10T07:56:00.514Z,15.50
2018-11-10T07:57:05.984Z,15.50
2018-11-10T07:58:11.522Z,14.90
2018-11-10T07:59:17.055Z,15.50
2018-11-10T08:00:22.598Z,15.30
2018-11-10T08:01:28.127Z,14.00
2018-11-10T08:02:33.663Z,14.40
2018-11-10T08:03:39.200Z,14.70
2018-11-10T08:04:44.736Z,14.20
2018-11-10T08:05:50.272Z,14.70
2018-11-10T08:06:55.811Z,14.70
2018-11-10T08:08:01.343Z,14.80
2018-11-10T08:09:06.892Z,13.30
2018-11-10T08:10:12.422Z,13.50
2018-11-10T08:11:17.952Z,13.30
2018-11-10T08:12:23.491Z,13.20
2018-11-10T08:13:29.029Z,13.60
2018-11-10T08:14:34.561Z,13.40
2018-11-10T08:15:40.096Z,12.80
2018-11-10T08:16:45.635Z,13.80
2018-11-10T08:17:51.179Z,13.00
2018-11-10T08:18:56.704Z,14.00
2018-11-10T08:20:02.240Z,14.00
2018-11-10T08:21:07.788Z,13.00
2018-11-10T08:22:13.313Z,12.60
2018-11-10T08:23:18.851Z,13.20
2018-11-10T08:24:24.393Z,13.80
2018-11-10T08:25:29.924Z,13.20
2018-11-10T08:26:35.463Z,13.10
2018-11-10T08:27:40.999Z,13.40
2018-11-10T08:28:46.532Z,13.70
2018-11-10T08:29:52.073Z,12.80
2018-11-10T08:30:57.653Z,12.80
2018-11-10T08:32:03.150Z,13.60
2018-11-10T08:33:08.677Z,12.60
2018-11-10T08:34:14.212Z,13.50
2018-11-10T08:35:19.757Z,12.60
2018-11-10T08:36:25.290Z,13.10
2018-11-10T08:37:30.819Z,13.00
2018-11-10T08:38:36.360Z,13.40
2018-11-10T08:39:41.900Z,13.40
2018-11-10T08:40:47.433Z,12.70
2018-11-10T08:41:52.965Z,13.20
2018-11-10T08:42:58.509Z,11.80
2018-11-10T08:44:04.041Z,12.60
2018-11-10T08:45:09.575Z,12.00
2018-11-10T08:46:15.109Z,11.90
2018-11-10T08:47:20.656Z,11.90
2018-11-10T08:48:26.184Z,11.70
2018-11-10T08:49:31.717Z,12.40
2018-11-10T08:50:37.260Z,11.60
2018-11-10T08:51:42.793Z,11.90
2018-11-10T08:52:48.334Z,12.90
2018-11-10T08:53:53.877Z,11.70
2018-11-10T08:54:59.404Z,11.30
2018-11-10T08:56:04.938Z,12.40
2018-11-10T08:57:10.479Z,13.30
2018-11-10T08:58:16.013Z,13.10
2018-11-10T08:59:21.548Z,11.90
2018-11-10T09:00:27.089Z,12.30
2018-11-10T09:01:32.623Z,12.60
2018-11-10T09:02:38.161Z,11.40
2018-11-10T09:03:43.692Z,12.50
2018-11-10T09:04:49.231Z,12.90
2018-11-10T09:05:54.773Z,11.20
2018-11-10T09:07:00.303Z,11.00
2018-11-10T09:08:05.844Z,11.10
2018-11-10T09:09:11.381Z,11.30
2018-11-10T09:10:16.919Z,10.90
2018-11-10T09:11:22.452Z,10.80
2018-11-10T09:12:27.987Z,11.80
2018-11-10T09:13:33.520Z,12.50
2018-11-10T09:14:39.058Z,11.60
2018-11-10T09:15:44.594Z,11.80
2018-11-10T09:16:50.135Z,11.50
2018-11-10T09:17:55.723Z,12.50
2018-11-10T09:19:01.208Z,10.80
2018-11-10T09:20:06.742Z,11.80
2018-11-10T09:21:12.367Z,10.10
2018-11-10T09:22:17.814Z,10.10
2018-11-10T09:24:54.944Z,12.30
2018-11-10T09:26:00.466Z,11.60
2018-11-10T09:27:58.891Z,12.10
2018-11-10T09:29:04.411Z,12.40
2018-11-10T09:31:02.872Z,10.40
2018-11-10T09:32:08.360Z,11.00
2018-11-10T09:34:06.799Z,11.80
2018-11-10T09:35:12.301Z,10.70
2018-11-10T09:37:10.723Z,11.10
2018-11-10T09:38:16.252Z,11.30
2018-11-10T09:40:14.686Z,10.70
2018-11-10T09:41:20.197Z,11.40
2018-11-10T09:43:18.609Z,12.20
2018-11-10T09:44:24.143Z,13.40
2018-11-10T09:46:22.572Z,12.80
2018-11-10T09:47:28.096Z,13.80
2018-11-10T09:49:26.501Z,14.60
2018-11-10T09:50:32.094Z,14.20
2018-11-10T09:52:30.472Z,12.80
2018-11-10T09:53:35.980Z,12.60
2018-11-10T09:55:34.395Z,13.50
2018-11-10T09:56:39.927Z,12.60
2018-11-10T09:58:39.203Z,13.30
2018-11-10T09:59:44.733Z,12.70
2018-11-10T10:01:43.372Z,16.10
2018-11-10T10:02:49.029Z,15.40
2018-11-10T10:04:47.096Z,12.70
2018-11-10T10:05:52.624Z,13.50
2018-11-10T10:07:51.054Z,12.70
2018-11-10T10:08:56.610Z,12.40
2018-11-10T10:10:54.977Z,12.30
2018-11-10T10:12:00.512Z,12.90
2018-11-10T10:13:58.954Z,13.80
2018-11-10T10:15:04.461Z,13.40
2018-11-10T10:16:10.013Z,12.80
2018-11-10T10:17:15.531Z,12.90
2018-11-10T10:18:21.065Z,11.70
2018-11-10T10:19:26.601Z,12.70
2018-11-10T10:20:32.138Z,12.80
2018-11-10T10:21:37.687Z,14.10
2018-11-10T10:22:43.211Z,12.50
2018-11-10T10:23:48.751Z,13.00
2018-11-10T10:24:54.289Z,13.10
2018-11-10T10:25:59.820Z,13.40
2018-11-10T10:27:05.359Z,12.20
2018-11-10T10:28:10.942Z,14.50
2018-11-10T10:29:16.431Z,13.40
2018-11-10T10:30:21.972Z,12.20
2018-11-10T10:31:27.505Z,13.50
2018-11-10T10:32:33.099Z,12.80
2018-11-10T10:33:38.582Z,12.80
2018-11-10T10:34:44.306Z,13.00
2018-11-10T10:35:49.652Z,13.10
2018-11-10T10:36:55.187Z,12.20
2018-11-10T10:38:00.732Z,13.00
2018-11-10T10:39:06.267Z,13.90
2018-11-10T10:40:11.815Z,11.30
2018-11-10T10:41:17.342Z,13.10
2018-11-10T10:42:22.877Z,12.30
2018-11-10T10:43:28.411Z,12.90
2018-11-10T10:44:33.948Z,12.30
2018-11-10T10:45:39.488Z,14.10
2018-11-10T10:46:45.020Z,13.60
2018-11-10T10:47:50.554Z,11.40
2018-11-10T10:48:56.271Z,12.80
2018-11-10T10:50:01.635Z,12.40
2018-11-10T10:51:07.179Z,11.70
2018-11-10T10:52:12.711Z,13.00
2018-11-10T10:53:18.250Z,12.90
2018-11-10T10:54:23.781Z,12.30
2018-11-10T10:55:29.317Z,11.60
2018-11-10T10:56:34.889Z,11.70
2018-11-10T10:57:40.401Z,12.00
2018-11-10T10:58:45.931Z,12.00
2018-11-10T10:59:51.468Z,11.20
2018-11-10T11:00:57.005Z,11.40
2018-11-10T11:02:02.543Z,11.90
2018-11-10T11:03:08.100Z,12.40
2018-11-10T11:04:13.618Z,12.00
2018-11-10T11:05:19.159Z,11.30
2018-11-10T11:06:24.701Z,11.00
2018-11-10T11:07:30.228Z,11.90
2018-11-10T11:08:35.767Z,11.40
2018-11-10T11:09:41.386Z,11.70
2018-11-10T11:10:46.840Z,12.20
2018-11-10T11:11:52.376Z,11.20
2018-11-10T11:12:57.917Z,13.00
2018-11-10T11:14:03.453Z,11.10
2018-11-10T11:15:09.011Z,11.30
2018-11-10T11:16:14.526Z,10.90
2018-11-10T11:17:20.064Z,10.90
2018-11-10T11:18:25.605Z,11.70
2018-11-10T11:19:31.145Z,11.60
2018-11-10T11:20:36.679Z,11.40
2018-11-10T11:21:42.232Z,11.70
2018-11-10T11:22:47.762Z,10.60
2018-11-10T11:23:53.292Z,10.60
2018-11-10T11:24:58.831Z,10.20
2018-11-10T11:26:04.367Z,11.60
2018-11-10T11:27:09.908Z,11.40
2018-11-10T11:28:15.443Z,11.20
2018-11-10T11:29:21.137Z,10.80
2018-11-10T11:30:26.525Z,10.70
2018-11-10T11:31:32.066Z,10.80
2018-11-10T11:32:37.598Z,10.90
2018-11-10T11:33:43.162Z,10.40
2018-11-10T11:34:48.668Z,11.00
2018-11-10T11:35:54.209Z,11.60
2018-11-10T11:36:59.750Z,11.00
2018-11-10T11:38:05.286Z,10.80
2018-11-10T11:39:10.817Z,12.20
2018-11-10T11:40:16.355Z,11.90
2018-11-10T11:41:21.982Z,10.80
2018-11-10T11:42:27.439Z,11.50
2018-11-10T11:43:32.971Z,10.60
2018-11-10T11:44:38.516Z,10.60
2018-11-10T11:45:44.050Z,10.30
2018-11-10T11:46:49.589Z,10.30
2018-11-10T11:47:55.119Z,9.80
2018-11-10T11:49:00.660Z,10.90
2018-11-10T11:50:06.196Z,10.50
2018-11-10T11:51:11.742Z,10.50
2018-11-10T11:52:17.275Z,9.80
2018-11-10T11:53:22.810Z,9.90
2018-11-10T11:54:28.348Z,10.70
2018-11-10T11:55:33.888Z,9.60
2018-11-10T11:56:39.424Z,8.90
2018-11-10T11:57:45.041Z,8.80
2018-11-10T11:58:50.502Z,8.80
2018-11-10T11:59:56.040Z,10.10
2018-11-10T12:01:01.578Z,8.90
2018-11-10T12:02:07.164Z,8.90
2018-11-10T12:03:12.647Z,9.20
2018-11-10T12:04:18.206Z,9.50
2018-11-10T12:05:23.727Z,9.20
2018-11-10T12:06:29.261Z,8.90
2018-11-10T12:07:34.799Z,9.60
2018-11-10T12:08:40.340Z,8.70
2018-11-10T12:09:45.877Z,8.80
2018-11-10T12:10:51.415Z,8.10
2018-11-10T12:11:56.953Z,8.70
2018-11-10T12:13:02.490Z,8.60
2018-11-10T12:14:08.030Z,8.80
2018-11-10T12:15:13.620Z,8.90
2018-11-10T12:16:27.183Z,8.20
2018-11-10T12:17:24.641Z,9.10
2018-11-10T12:18:30.186Z,8.90
2018-11-10T12:19:35.722Z,8.80
2018-11-10T12:20:41.292Z,9.50
2018-11-10T12:21:46.808Z,9.60
2018-11-10T12:22:52.331Z,8.70
2018-11-10T12:23:57.867Z,9.50
2018-11-10T12:25:03.407Z,9.60
2018-11-10T12:26:08.952Z,9.50
2018-11-10T12:27:14.482Z,9.30
2018-11-10T12:28:20.022Z,9.10
2018-11-10T12:29:25.561Z,9.20
2018-11-10T12:30:31.101Z,8.90
2018-11-10T12:31:36.642Z,10.00
2018-11-10T12:32:42.177Z,8.60
2018-11-10T12:33:47.709Z,9.40
2018-11-10T12:34:53.250Z,10.10
2018-11-10T12:35:58.787Z,10.20
2018-11-10T12:37:04.328Z,9.70
2018-11-10T12:38:09.867Z,10.00
2018-11-10T12:39:15.403Z,11.10
2018-11-10T12:40:20.942Z,11.20
2018-11-10T12:41:26.479Z,10.60
2018-11-10T12:42:32.012Z,11.00
2018-11-10T12:43:37.550Z,10.20
2018-11-10T12:44:43.091Z,11.70
2018-11-10T12:45:48.631Z,10.10
2018-11-10T12:46:54.165Z,11.40
2018-11-10T12:47:59.708Z,10.50
2018-11-10T12:49:05.257Z,10.40
2018-11-10T12:50:10.778Z,10.30
2018-11-10T12:51:16.319Z,10.00
2018-11-10T12:52:21.886Z,9.80
2018-11-10T12:53:27.390Z,10.50
2018-11-10T12:54:32.933Z,11.60
2018-11-10T12:55:38.469Z,11.60
2018-11-10T12:56:44.008Z,12.00
2018-11-10T12:57:49.571Z,11.30
2018-11-10T12:58:55.102Z,10.90
2018-11-10T13:00:00.620Z,12.10
2018-11-10T13:01:06.155Z,11.40
2018-11-10T13:02:11.701Z,12.20
2018-11-10T13:03:17.237Z,11.90
2018-11-10T13:04:22.773Z,12.80
2018-11-10T13:05:28.314Z,11.30
2018-11-10T13:06:33.852Z,12.10
2018-11-10T13:07:39.384Z,11.50
2018-11-10T13:08:44.930Z,12.50
2018-11-10T13:09:50.465Z,12.40
2018-11-10T13:10:56.154Z,12.10
2018-11-10T13:12:01.679Z,13.00
2018-11-10T13:13:07.079Z,12.60
2018-11-10T13:14:12.615Z,13.20
2018-11-10T13:15:18.155Z,11.30
2018-11-10T13:16:23.722Z,11.90
2018-11-10T13:17:29.300Z,12.90
2018-11-10T13:18:34.765Z,11.10
2018-11-10T13:19:40.305Z,11.90
2018-11-10T13:20:45.849Z,13.10
2018-11-10T13:21:51.377Z,13.40
2018-11-10T13:22:56.915Z,10.80
2018-11-10T13:24:02.464Z,11.60
2018-11-10T13:25:08.009Z,13.00
2018-11-10T13:26:13.530Z,11.80
2018-11-10T13:27:19.070Z,12.80
2018-11-10T13:28:24.657Z,12.60
2018-11-10T13:29:30.146Z,11.80
2018-11-10T13:30:35.683Z,13.20
2018-11-10T13:31:41.289Z,13.30
2018-11-10T13:32:46.755Z,12.70
2018-11-10T13:33:52.298Z,11.50
2018-11-10T13:34:57.832Z,11.90
2018-11-10T13:36:03.370Z,11.60
2018-11-10T13:37:08.909Z,11.50
2018-11-10T13:38:14.512Z,13.00
2018-11-10T13:39:19.991Z,12.50
2018-11-10T13:40:25.525Z,11.80
2018-11-10T13:41:31.072Z,13.30
2018-11-10T13:42:36.600Z,14.20
2018-11-10T13:43:42.212Z,13.00
2018-11-10T13:44:47.689Z,13.50
2018-11-10T13:45:53.212Z,13.50
2018-11-10T13:46:58.756Z,12.80
2018-11-10T13:48:04.300Z,13.60
2018-11-10T13:49:09.828Z,13.80
2018-11-10T13:50:15.367Z,12.70
2018-11-10T13:51:21.065Z,13.50
2018-11-10T13:52:26.713Z,13.50
2018-11-10T13:53:31.976Z,12.20
2018-11-10T13:54:37.518Z,13.20
2018-11-10T13:55:43.060Z,13.10
2018-11-10T13:56:48.589Z,13.40
2018-11-10T13:57:54.129Z,12.60
2018-11-10T13:58:59.727Z,12.80
2018-11-10T14:00:05.204Z,11.90
2018-11-10T14:01:10.746Z,12.90
2018-11-10T14:02:16.284Z,12.40
2018-11-10T14:03:21.817Z,12.80
2018-11-10T14:04:27.349Z,13.00
2018-11-10T14:05:32.908Z,12.80
2018-11-10T14:06:38.431Z,13.90
2018-11-10T14:07:43.981Z,13.80
2018-11-10T14:08:49.507Z,13.10
2018-11-10T14:09:55.043Z,13.00
2018-11-10T14:11:00.579Z,13.40
2018-11-10T14:12:06.119Z,13.80
2018-11-10T14:13:11.663Z,13.00
2018-11-10T14:14:17.199Z,14.20
2018-11-10T14:15:22.733Z,13.70
2018-11-10T14:16:28.274Z,12.40
2018-11-10T14:17:33.806Z,13.90
2018-11-10T14:18:39.343Z,13.70
2018-11-10T14:19:44.882Z,12.80
2018-11-10T14:20:50.429Z,13.10
2018-11-10T14:21:55.961Z,13.10
2018-11-10T14:23:01.500Z,13.90
2018-11-10T14:24:07.036Z,14.20
2018-11-10T14:25:12.574Z,14.60
2018-11-10T14:26:18.171Z,13.20
2018-11-10T14:27:23.650Z,14.60
2018-11-10T14:28:29.182Z,14.80
2018-11-10T14:29:34.728Z,15.10
2018-11-10T14:30:40.255Z,14.50
2018-11-10T14:31:45.798Z,13.60
2018-11-10T14:32:51.335Z,14.80